Mehmet Bey — 9HUD6 — position and weather

sailwx.info

Track history (hours):
 
Tides and Currents Weather Stations Pressure Air Temp Water Temp Dewpoint Dewpoint Depression Visibility Wind Speed Wind Dir Waves Ship Positions

Mehmet Bey

Last reported at 2014-Jul-23 12:09 UTC. Time now 2014-Jul-25 03:41 UTC.
Position N 35°43' W 000°38'.

; draft 7.7 m.

Type: Cargo ship. MMSI: 248864000.

Date/timePositionNaut miles runAvg speedWind from/ knotsBaromVisibWave heightAir tempDewpointWater temp
2014-Jul-23 12:09N 35°43' W 000°38'0 0.0
2014-Jul-23 11:33N 35°43' W 000°38'0 0.0
2014-Jul-23 10:16N 35°43' W 000°38'0 0.0
2014-Jul-23 08:17N 35°43' W 000°38'0 0.0
2014-Jul-23 07:16N 35°43' W 000°38'0 0.0
2014-Jul-23 05:29N 35°43' W 000°38'0 0.0
2014-Jul-22 22:32N 35°43' W 000°38'0 0.0
2014-Jul-22 21:28N 35°43' W 000°38'0 0.0
2014-Jul-22 13:08N 35°43' W 000°38'0 0.0
2014-Jul-22 07:20N 35°43' W 000°38'0 0.0
2014-Jul-22 03:07N 35°43' W 000°38'0 0.0
2014-Jul-22 02:31N 35°43' W 000°38'0 0.0
2014-Jul-21 23:25N 35°43' W 000°38'0 0.0
2014-Jul-21 22:17N 35°43' W 000°38'0 0.0
2014-Jul-21 21:17N 35°43' W 000°38'0 0.0
2014-Jul-21 14:11N 35°43' W 000°38'0 0.0
2014-Jul-19 12:25N 35°43' W 000°38'  
2014-Jul-16 10:12N 35°45' W 000°37'96 7.4
2014-Jul-15 21:08N 36°40' E 001°01'13 7.8
2014-Jul-15 19:25N 36°43' E 001°17'47 7.5
2014-Jul-15 13:10N 36°54' E 002°15'4 7.4
2014-Jul-15 12:34N 36°55' E 002°20'19 7.9
2014-Jul-15 10:05N 36°59' E 002°44'4 6.8
2014-Jul-15 09:33N 36°60' E 002°48'10 8.1
2014-Jul-15 08:22N 37°01' E 003°00'77 7.9
2014-Jul-14 22:34N 37°10' E 004°37'8 7.7
2014-Jul-14 21:31N 37°11' E 004°47'8 8.0
2014-Jul-14 20:32N 37°12' E 004°57'9 8.2
2014-Jul-14 19:27N 37°13' E 005°08'10 7.8
2014-Jul-14 18:08N 37°14' E 005°21'4 7.7
2014-Jul-14 17:33N 37°15' E 005°26'9 7.6
2014-Jul-14 16:25N 37°16' E 005°37'24 7.9
2014-Jul-14 13:21N 37°18' E 006°07'  
Track history (hours):
 
Tides and Currents Weather Stations Pressure Air Temp Water Temp Dewpoint Dewpoint Depression Visibility Wind Speed Wind Dir Waves Ship Positions

Mehmet Bey

Last reported at 2014-Jul-23 12:09 UTC. Time now 2014-Jul-25 03:41 UTC.
Position N 35°43' W 000°38'.

; draft 7.7 m.

Type: Cargo ship. MMSI: 248864000.

Date/timePositionNaut miles runAvg speedWind from/ knotsBaromVisibWave heightAir tempDewpointWater temp
2014-Jul-23 12:09N 35°43' W 000°38'0 0.0
2014-Jul-23 11:33N 35°43' W 000°38'0 0.0
2014-Jul-23 10:16N 35°43' W 000°38'0 0.0
2014-Jul-23 08:17N 35°43' W 000°38'0 0.0
2014-Jul-23 07:16N 35°43' W 000°38'0 0.0
2014-Jul-23 05:29N 35°43' W 000°38'0 0.0
2014-Jul-22 22:32N 35°43' W 000°38'0 0.0
2014-Jul-22 21:28N 35°43' W 000°38'0 0.0
2014-Jul-22 13:08N 35°43' W 000°38'0 0.0
2014-Jul-22 07:20N 35°43' W 000°38'0 0.0
2014-Jul-22 03:07N 35°43' W 000°38'0 0.0
2014-Jul-22 02:31N 35°43' W 000°38'0 0.0
2014-Jul-21 23:25N 35°43' W 000°38'0 0.0
2014-Jul-21 22:17N 35°43' W 000°38'0 0.0
2014-Jul-21 21:17N 35°43' W 000°38'0 0.0
2014-Jul-21 14:11N 35°43' W 000°38'0 0.0
2014-Jul-19 12:25N 35°43' W 000°38'  
2014-Jul-16 10:12N 35°45' W 000°37'96 7.4
2014-Jul-15 21:08N 36°40' E 001°01'13 7.8
2014-Jul-15 19:25N 36°43' E 001°17'47 7.5
2014-Jul-15 13:10N 36°54' E 002°15'4 7.4
2014-Jul-15 12:34N 36°55' E 002°20'19 7.9
2014-Jul-15 10:05N 36°59' E 002°44'4 6.8
2014-Jul-15 09:33N 36°60' E 002°48'10 8.1
2014-Jul-15 08:22N 37°01' E 003°00'77 7.9
2014-Jul-14 22:34N 37°10' E 004°37'8 7.7
2014-Jul-14 21:31N 37°11' E 004°47'8 8.0
2014-Jul-14 20:32N 37°12' E 004°57'9 8.2
2014-Jul-14 19:27N 37°13' E 005°08'10 7.8
2014-Jul-14 18:08N 37°14' E 005°21'4 7.7
2014-Jul-14 17:33N 37°15' E 005°26'9 7.6
2014-Jul-14 16:25N 37°16' E 005°37'24 7.9
2014-Jul-14 13:21N 37°18' E 006°07'  

Dump ship's entire track history